Αρχική σελίδα
METAR-TAF:

METAR-TAF

Αεροδρόμια :

Τζέντα, Σαουδική Αραβία

γεωγραφικό πλάτος: 21-42N, γεωγραφικό μήκος: 039-11E, υψόμετρο: 15 μ

Παρών καιρός

Η αναφορά έγινε 15 λεπτά πριν, στις 03:00 UTC
Άνεμος 4 kt από
Θερμοκρασία 28°C
Υγρασία 74%
Πίεση 1000 hPa
Ορατότητα 10 χλμ και άνω
Δεν υπάρχουν νέφη με βάση κάτω από τα 1500 μ. και δεν υπάρχουν νέφη σωρειτομελανίτες.

METAR: OEJN 240300Z 32004KT CAVOK 28/23 Q1000 NOSIG

Χρόνος: 06:15 (03:15 UTC)

Πρόγνωση Καιρού

Η αναφορά έγινε 4 ώρες και 15 λεπτά πριν, στις 23:00 UTC
Η πρόγνωση ισχύει από τις 24 στις 00 UTC έως τις 25 στις 06 UTC
Άνεμος 6 kt από Β/BA
Ορατότητα 10 χλμ και άνω
Λίγα νέφη σε ύψος 4000 πόδια
Καθιστάμενος
από 24 στις 06 UTC έως τις 24 στις 08 UTC
Άνεμος 14 kt από Δ/BΔ

TAF: OEJN 232300Z 2400/2506 03006KT 9999 FEW040 BECMG 2406/2408 30014KT

Μετεωρολογικές αναφορές και προγνώσεις για περισσότερα από 4000 αεροδρόμια (δελτία METAR και TAF).

Οι διαθέσιμοι σταθμοί απεικονίζονται στο χάρτη με κίτρινες και κόκκινες κουκκίδες.

Μετακινήστε το ποντίκι πάνω από τις κουκκίδες για να δείτε το όνομα του σταθμού.

Στη συνέχεια, κάντε κλικ για να δείτε τις μετεωρολογικές αναφορές και τις προγνώσεις καιρού.

Για να αλλάξετε το χάρτη: κάντε κλικ στα πράσινα κουμπιά με τον μαύρο σταυρό για να ζουμάρετε, στο πράσινο κουμπί με την παύλα για να αφαιρέσετε το ζουμ ή στα πράσινα βέλη για να αντιπαραβάλλετε χάρτες.


METAR-TAF: